sensor_id;sensor_type;location;lat;lon;timestamp;P1;durP1;ratioP1;P2;durP2;ratioP2
73779;SDS011;62093;37.614;15.072;2023-09-19T00:00:20;12.98;;;4.30;;
73779;SDS011;62093;37.614;15.072;2023-09-19T00:02:53;13.63;;;4.43;;
73779;SDS011;62093;37.614;15.072;2023-09-19T00:05:25;16.77;;;3.90;;
73779;SDS011;62093;37.614;15.072;2023-09-19T00:07:53;13.80;;;4.20;;
73779;SDS011;62093;37.614;15.072;2023-09-19T00:10:21;16.57;;;4.40;;
73779;SDS011;62093;37.614;15.072;2023-09-19T00:12:53;17.63;;;4.72;;
73779;SDS011;62093;37.614;15.072;2023-09-19T00:15:27;23.13;;;5.85;;
73779;SDS011;62093;37.614;15.072;2023-09-19T00:17:56;26.92;;;6.32;;
73779;SDS011;62093;37.614;15.072;2023-09-19T00:20:22;24.67;;;6.03;;
73779;SDS011;62093;37.614;15.072;2023-09-19T00:22:50;15.63;;;5.23;;
73779;SDS011;62093;37.614;15.072;2023-09-19T00:25:17;14.25;;;4.88;;
73779;SDS011;62093;37.614;15.072;2023-09-19T00:27:44;19.55;;;5.13;;
73779;SDS011;62093;37.614;15.072;2023-09-19T00:30:11;14.10;;;4.90;;
73779;SDS011;62093;37.614;15.072;2023-09-19T00:32:47;14.68;;;4.30;;
73779;SDS011;62093;37.614;15.072;2023-09-19T00:35:14;13.57;;;4.27;;
73779;SDS011;62093;37.614;15.072;2023-09-19T00:37:44;14.73;;;4.63;;
73779;SDS011;62093;37.614;15.072;2023-09-19T00:40:11;13.68;;;4.40;;
73779;SDS011;62093;37.614;15.072;2023-09-19T00:42:38;14.57;;;4.40;;
73779;SDS011;62093;37.614;15.072;2023-09-19T00:45:05;13.63;;;4.25;;
73779;SDS011;62093;37.614;15.072;2023-09-19T00:47:35;12.60;;;3.93;;
73779;SDS011;62093;37.614;15.072;2023-09-19T00:50:01;16.52;;;4.30;;
73779;SDS011;62093;37.614;15.072;2023-09-19T00:52:30;13.43;;;4.10;;
73779;SDS011;62093;37.614;15.072;2023-09-19T00:54:57;14.07;;;4.72;;
73779;SDS011;62093;37.614;15.072;2023-09-19T00:57:25;15.85;;;4.47;;
73779;SDS011;62093;37.614;15.072;2023-09-19T00:59:52;22.33;;;4.90;;
73779;SDS011;62093;37.614;15.072;2023-09-19T01:02:20;14.82;;;4.32;;
73779;SDS011;62093;37.614;15.072;2023-09-19T01:04:46;14.75;;;4.32;;
73779;SDS011;62093;37.614;15.072;2023-09-19T01:07:13;15.05;;;4.13;;
73779;SDS011;62093;37.614;15.072;2023-09-19T01:09:41;14.63;;;4.35;;
73779;SDS011;62093;37.614;15.072;2023-09-19T01:12:08;17.93;;;4.03;;
73779;SDS011;62093;37.614;15.072;2023-09-19T01:14:42;18.50;;;4.40;;
73779;SDS011;62093;37.614;15.072;2023-09-19T01:17:24;16.48;;;4.30;;
73779;SDS011;62093;37.614;15.072;2023-09-19T01:20:03;12.45;;;3.75;;
73779;SDS011;62093;37.614;15.072;2023-09-19T01:28:54;13.75;;;3.97;;
73779;SDS011;62093;37.614;15.072;2023-09-19T01:31:28;13.85;;;3.83;;
73779;SDS011;62093;37.614;15.072;2023-09-19T01:34:00;15.93;;;4.15;;
73779;SDS011;62093;37.614;15.072;2023-09-19T01:36:32;15.50;;;3.53;;
73779;SDS011;62093;37.614;15.072;2023-09-19T01:39:07;11.63;;;3.57;;
73779;SDS011;62093;37.614;15.072;2023-09-19T01:42:18;11.02;;;3.60;;
73779;SDS011;62093;37.614;15.072;2023-09-19T01:53:21;14.73;;;3.23;;
73779;SDS011;62093;37.614;15.072;2023-09-19T01:55:53;16.02;;;3.95;;
73779;SDS011;62093;37.614;15.072;2023-09-19T01:58:21;13.00;;;3.65;;
73779;SDS011;62093;37.614;15.072;2023-09-19T02:00:51;12.90;;;3.50;;
73779;SDS011;62093;37.614;15.072;2023-09-19T02:03:19;12.73;;;3.47;;
73779;SDS011;62093;37.614;15.072;2023-09-19T02:05:50;14.00;;;3.60;;
73779;SDS011;62093;37.614;15.072;2023-09-19T02:08:17;17.55;;;3.55;;
73779;SDS011;62093;37.614;15.072;2023-09-19T02:10:44;12.50;;;3.55;;
73779;SDS011;62093;37.614;15.072;2023-09-19T02:13:20;12.13;;;3.30;;
73779;SDS011;62093;37.614;15.072;2023-09-19T02:15:50;12.32;;;3.55;;
73779;SDS011;62093;37.614;15.072;2023-09-19T02:18:16;17.47;;;3.77;;
73779;SDS011;62093;37.614;15.072;2023-09-19T02:20:42;12.90;;;3.13;;
73779;SDS011;62093;37.614;15.072;2023-09-19T02:23:08;12.40;;;3.30;;
73779;SDS011;62093;37.614;15.072;2023-09-19T02:25:35;12.82;;;3.63;;
73779;SDS011;62093;37.614;15.072;2023-09-19T02:28:01;14.73;;;3.40;;
73779;SDS011;62093;37.614;15.072;2023-09-19T02:30:30;16.17;;;3.42;;
73779;SDS011;62093;37.614;15.072;2023-09-19T02:32:56;13.52;;;3.70;;
73779;SDS011;62093;37.614;15.072;2023-09-19T02:35:22;14.15;;;3.22;;
73779;SDS011;62093;37.614;15.072;2023-09-19T02:37:50;11.30;;;3.67;;
73779;SDS011;62093;37.614;15.072;2023-09-19T02:40:17;11.63;;;3.37;;
73779;SDS011;62093;37.614;15.072;2023-09-19T02:42:48;12.70;;;3.50;;
73779;SDS011;62093;37.614;15.072;2023-09-19T02:45:15;9.57;;;3.08;;
73779;SDS011;62093;37.614;15.072;2023-09-19T02:47:48;12.35;;;3.25;;
73779;SDS011;62093;37.614;15.072;2023-09-19T02:50:17;12.52;;;3.05;;
73779;SDS011;62093;37.614;15.072;2023-09-19T02:52:44;17.10;;;3.60;;
73779;SDS011;62093;37.614;15.072;2023-09-19T02:55:19;9.93;;;2.95;;
73779;SDS011;62093;37.614;15.072;2023-09-19T02:57:49;12.80;;;3.20;;
73779;SDS011;62093;37.614;15.072;2023-09-19T03:00:17;14.20;;;2.95;;
73779;SDS011;62093;37.614;15.072;2023-09-19T03:02:55;14.68;;;3.38;;
73779;SDS011;62093;37.614;15.072;2023-09-19T03:05:24;14.23;;;3.57;;
73779;SDS011;62093;37.614;15.072;2023-09-19T03:07:52;13.23;;;3.50;;
73779;SDS011;62093;37.614;15.072;2023-09-19T03:10:19;13.73;;;2.72;;
73779;SDS011;62093;37.614;15.072;2023-09-19T03:12:46;10.57;;;3.30;;
73779;SDS011;62093;37.614;15.072;2023-09-19T03:15:13;9.15;;;2.88;;
73779;SDS011;62093;37.614;15.072;2023-09-19T03:17:45;14.17;;;2.87;;
73779;SDS011;62093;37.614;15.072;2023-09-19T03:20:16;10.23;;;2.88;;
73779;SDS011;62093;37.614;15.072;2023-09-19T03:22:48;12.77;;;3.03;;
73779;SDS011;62093;37.614;15.072;2023-09-19T03:25:17;16.15;;;3.45;;
73779;SDS011;62093;37.614;15.072;2023-09-19T03:27:46;15.80;;;3.33;;
73779;SDS011;62093;37.614;15.072;2023-09-19T03:30:13;18.50;;;3.40;;
73779;SDS011;62093;37.614;15.072;2023-09-19T03:32:44;19.70;;;4.28;;
73779;SDS011;62093;37.614;15.072;2023-09-19T03:35:11;17.25;;;4.45;;
73779;SDS011;62093;37.614;15.072;2023-09-19T03:37:40;16.40;;;4.03;;
73779;SDS011;62093;37.614;15.072;2023-09-19T03:40:08;13.20;;;3.67;;
73779;SDS011;62093;37.614;15.072;2023-09-19T03:42:39;13.83;;;3.50;;
73779;SDS011;62093;37.614;15.072;2023-09-19T03:45:07;17.20;;;3.78;;
73779;SDS011;62093;37.614;15.072;2023-09-19T03:47:38;18.38;;;3.65;;
73779;SDS011;62093;37.614;15.072;2023-09-19T03:50:08;17.73;;;3.70;;
73779;SDS011;62093;37.614;15.072;2023-09-19T03:52:36;14.90;;;3.20;;
73779;SDS011;62093;37.614;15.072;2023-09-19T03:55:02;14.93;;;7.93;;
73779;SDS011;62093;37.614;15.072;2023-09-19T03:57:30;25.38;;;16.33;;
73779;SDS011;62093;37.614;15.072;2023-09-19T03:59:56;21.50;;;10.75;;
73779;SDS011;62093;37.614;15.072;2023-09-19T04:02:22;29.10;;;15.30;;
73779;SDS011;62093;37.614;15.072;2023-09-19T04:04:50;19.98;;;7.28;;
73779;SDS011;62093;37.614;15.072;2023-09-19T04:07:17;25.20;;;8.43;;
73779;SDS011;62093;37.614;15.072;2023-09-19T04:09:48;21.50;;;8.95;;
73779;SDS011;62093;37.614;15.072;2023-09-19T04:12:14;21.90;;;7.63;;
73779;SDS011;62093;37.614;15.072;2023-09-19T04:14:42;17.10;;;7.60;;
73779;SDS011;62093;37.614;15.072;2023-09-19T04:17:09;24.90;;;8.82;;
73779;SDS011;62093;37.614;15.072;2023-09-19T04:19:36;16.70;;;8.47;;
73779;SDS011;62093;37.614;15.072;2023-09-19T04:22:04;14.68;;;5.57;;
73779;SDS011;62093;37.614;15.072;2023-09-19T04:24:30;13.55;;;6.28;;
73779;SDS011;62093;37.614;15.072;2023-09-19T04:27:00;17.85;;;5.80;;
73779;SDS011;62093;37.614;15.072;2023-09-19T04:29:26;21.48;;;5.32;;
73779;SDS011;62093;37.614;15.072;2023-09-19T04:31:54;18.83;;;5.00;;
73779;SDS011;62093;37.614;15.072;2023-09-19T04:34:22;21.95;;;4.95;;
73779;SDS011;62093;37.614;15.072;2023-09-19T04:36:49;16.10;;;4.43;;
73779;SDS011;62093;37.614;15.072;2023-09-19T04:39:15;17.75;;;4.32;;
73779;SDS011;62093;37.614;15.072;2023-09-19T04:41:42;15.00;;;4.88;;
73779;SDS011;62093;37.614;15.072;2023-09-19T04:44:08;16.33;;;3.87;;
73779;SDS011;62093;37.614;15.072;2023-09-19T04:46:34;13.68;;;4.15;;
73779;SDS011;62093;37.614;15.072;2023-09-19T04:49:00;18.15;;;4.28;;
73779;SDS011;62093;37.614;15.072;2023-09-19T04:51:27;19.45;;;4.78;;
73779;SDS011;62093;37.614;15.072;2023-09-19T04:54:00;16.63;;;4.03;;
73779;SDS011;62093;37.614;15.072;2023-09-19T04:56:27;16.13;;;4.10;;
73779;SDS011;62093;37.614;15.072;2023-09-19T04:58:54;17.67;;;4.18;;
73779;SDS011;62093;37.614;15.072;2023-09-19T05:01:20;13.73;;;3.88;;
73779;SDS011;62093;37.614;15.072;2023-09-19T05:03:48;19.67;;;4.40;;
73779;SDS011;62093;37.614;15.072;2023-09-19T05:06:20;18.87;;;4.23;;
73779;SDS011;62093;37.614;15.072;2023-09-19T05:08:47;24.67;;;10.70;;
73779;SDS011;62093;37.614;15.072;2023-09-19T05:11:18;22.65;;;6.05;;
73779;SDS011;62093;37.614;15.072;2023-09-19T05:13:47;17.63;;;4.60;;
73779;SDS011;62093;37.614;15.072;2023-09-19T05:16:15;20.65;;;4.20;;
73779;SDS011;62093;37.614;15.072;2023-09-19T05:18:41;17.70;;;4.03;;
73779;SDS011;62093;37.614;15.072;2023-09-19T05:21:08;17.70;;;4.57;;
73779;SDS011;62093;37.614;15.072;2023-09-19T05:23:36;15.15;;;4.55;;
73779;SDS011;62093;37.614;15.072;2023-09-19T05:26:02;22.33;;;4.50;;
73779;SDS011;62093;37.614;15.072;2023-09-19T05:28:29;15.07;;;4.20;;
73779;SDS011;62093;37.614;15.072;2023-09-19T05:30:55;18.57;;;4.60;;
73779;SDS011;62093;37.614;15.072;2023-09-19T05:33:21;18.30;;;5.57;;
73779;SDS011;62093;37.614;15.072;2023-09-19T05:35:50;16.75;;;4.88;;
73779;SDS011;62093;37.614;15.072;2023-09-19T05:38:16;18.60;;;4.93;;
73779;SDS011;62093;37.614;15.072;2023-09-19T05:40:44;12.73;;;4.47;;
73779;SDS011;62093;37.614;15.072;2023-09-19T05:43:11;17.60;;;4.38;;
73779;SDS011;62093;37.614;15.072;2023-09-19T05:45:40;17.13;;;4.95;;
73779;SDS011;62093;37.614;15.072;2023-09-19T05:48:07;17.45;;;4.03;;
73779;SDS011;62093;37.614;15.072;2023-09-19T05:50:39;19.45;;;4.00;;
73779;SDS011;62093;37.614;15.072;2023-09-19T05:53:05;17.23;;;4.60;;
73779;SDS011;62093;37.614;15.072;2023-09-19T05:55:32;17.75;;;5.20;;
73779;SDS011;62093;37.614;15.072;2023-09-19T05:57:58;16.55;;;4.68;;
73779;SDS011;62093;37.614;15.072;2023-09-19T06:00:25;17.40;;;4.22;;
73779;SDS011;62093;37.614;15.072;2023-09-19T06:02:53;19.08;;;4.82;;
73779;SDS011;62093;37.614;15.072;2023-09-19T06:05:26;18.40;;;5.50;;
73779;SDS011;62093;37.614;15.072;2023-09-19T06:07:53;19.02;;;4.82;;
73779;SDS011;62093;37.614;15.072;2023-09-19T06:10:22;15.65;;;5.05;;
73779;SDS011;62093;37.614;15.072;2023-09-19T06:12:48;18.05;;;4.80;;
73779;SDS011;62093;37.614;15.072;2023-09-19T06:15:15;15.52;;;4.20;;
73779;SDS011;62093;37.614;15.072;2023-09-19T06:17:50;13.53;;;4.40;;
73779;SDS011;62093;37.614;15.072;2023-09-19T06:20:20;15.95;;;4.07;;
73779;SDS011;62093;37.614;15.072;2023-09-19T06:22:51;11.55;;;3.88;;
73779;SDS011;62093;37.614;15.072;2023-09-19T06:25:17;9.82;;;4.20;;
73779;SDS011;62093;37.614;15.072;2023-09-19T06:27:48;11.63;;;3.97;;
73779;SDS011;62093;37.614;15.072;2023-09-19T06:30:21;13.83;;;4.30;;
73779;SDS011;62093;37.614;15.072;2023-09-19T06:32:55;16.83;;;4.60;;
73779;SDS011;62093;37.614;15.072;2023-09-19T06:35:22;12.98;;;4.50;;
73779;SDS011;62093;37.614;15.072;2023-09-19T06:37:48;14.80;;;4.85;;
73779;SDS011;62093;37.614;15.072;2023-09-19T06:40:15;13.80;;;4.15;;
73779;SDS011;62093;37.614;15.072;2023-09-19T06:42:41;11.73;;;3.93;;
73779;SDS011;62093;37.614;15.072;2023-09-19T06:45:10;12.43;;;4.03;;
73779;SDS011;62093;37.614;15.072;2023-09-19T06:47:43;13.15;;;4.28;;
73779;SDS011;62093;37.614;15.072;2023-09-19T06:50:11;10.25;;;3.78;;
73779;SDS011;62093;37.614;15.072;2023-09-19T06:52:40;12.70;;;4.63;;
73779;SDS011;62093;37.614;15.072;2023-09-19T06:55:07;12.47;;;4.23;;
73779;SDS011;62093;37.614;15.072;2023-09-19T06:57:35;11.02;;;3.88;;
73779;SDS011;62093;37.614;15.072;2023-09-19T07:00:01;13.02;;;4.18;;
73779;SDS011;62093;37.614;15.072;2023-09-19T07:02:28;11.68;;;4.00;;
73779;SDS011;62093;37.614;15.072;2023-09-19T07:04:54;11.43;;;4.07;;
73779;SDS011;62093;37.614;15.072;2023-09-19T07:07:20;9.67;;;3.73;;
73779;SDS011;62093;37.614;15.072;2023-09-19T07:09:46;10.05;;;3.80;;
73779;SDS011;62093;37.614;15.072;2023-09-19T07:12:14;10.15;;;3.92;;
73779;SDS011;62093;37.614;15.072;2023-09-19T07:14:40;12.10;;;3.78;;
73779;SDS011;62093;37.614;15.072;2023-09-19T07:17:06;13.70;;;4.03;;
73779;SDS011;62093;37.614;15.072;2023-09-19T07:19:33;14.57;;;4.00;;
73779;SDS011;62093;37.614;15.072;2023-09-19T07:21:59;15.75;;;3.95;;
73779;SDS011;62093;37.614;15.072;2023-09-19T07:24:28;12.82;;;3.80;;
73779;SDS011;62093;37.614;15.072;2023-09-19T07:26:54;9.13;;;3.40;;
73779;SDS011;62093;37.614;15.072;2023-09-19T07:29:20;12.75;;;3.80;;
73779;SDS011;62093;37.614;15.072;2023-09-19T07:31:46;11.97;;;3.90;;
73779;SDS011;62093;37.614;15.072;2023-09-19T07:34:12;12.57;;;3.92;;
73779;SDS011;62093;37.614;15.072;2023-09-19T07:36:39;12.38;;;4.18;;
73779;SDS011;62093;37.614;15.072;2023-09-19T07:39:07;12.05;;;3.85;;
73779;SDS011;62093;37.614;15.072;2023-09-19T07:41:33;13.95;;;4.22;;
73779;SDS011;62093;37.614;15.072;2023-09-19T07:43:59;12.90;;;4.17;;
73779;SDS011;62093;37.614;15.072;2023-09-19T07:46:26;10.63;;;4.07;;
73779;SDS011;62093;37.614;15.072;2023-09-19T07:48:52;13.35;;;3.75;;
73779;SDS011;62093;37.614;15.072;2023-09-19T07:51:18;9.35;;;4.07;;
73779;SDS011;62093;37.614;15.072;2023-09-19T07:53:44;12.85;;;3.83;;
73779;SDS011;62093;37.614;15.072;2023-09-19T07:56:10;12.97;;;4.07;;
73779;SDS011;62093;37.614;15.072;2023-09-19T07:58:38;13.45;;;4.00;;
73779;SDS011;62093;37.614;15.072;2023-09-19T08:01:07;14.70;;;4.07;;
73779;SDS011;62093;37.614;15.072;2023-09-19T08:03:34;11.80;;;3.75;;
73779;SDS011;62093;37.614;15.072;2023-09-19T08:06:03;14.18;;;4.18;;
73779;SDS011;62093;37.614;15.072;2023-09-19T08:08:29;14.30;;;4.10;;
73779;SDS011;62093;37.614;15.072;2023-09-19T08:10:58;13.05;;;4.07;;
73779;SDS011;62093;37.614;15.072;2023-09-19T08:13:24;12.90;;;4.10;;
73779;SDS011;62093;37.614;15.072;2023-09-19T08:15:51;13.68;;;4.28;;
73779;SDS011;62093;37.614;15.072;2023-09-19T08:18:21;14.95;;;3.90;;
73779;SDS011;62093;37.614;15.072;2023-09-19T08:20:51;15.50;;;4.40;;
73779;SDS011;62093;37.614;15.072;2023-09-19T08:23:18;14.43;;;4.25;;
73779;SDS011;62093;37.614;15.072;2023-09-19T08:25:47;13.73;;;3.70;;
73779;SDS011;62093;37.614;15.072;2023-09-19T08:28:13;13.82;;;4.25;;
73779;SDS011;62093;37.614;15.072;2023-09-19T08:30:47;11.25;;;3.47;;
73779;SDS011;62093;37.614;15.072;2023-09-19T08:33:13;14.83;;;4.30;;
73779;SDS011;62093;37.614;15.072;2023-09-19T08:35:40;12.57;;;4.10;;
73779;SDS011;62093;37.614;15.072;2023-09-19T08:38:08;16.20;;;3.78;;
73779;SDS011;62093;37.614;15.072;2023-09-19T08:40:36;15.95;;;4.07;;
73779;SDS011;62093;37.614;15.072;2023-09-19T08:43:07;11.20;;;4.07;;
73779;SDS011;62093;37.614;15.072;2023-09-19T08:45:36;12.43;;;4.40;;
73779;SDS011;62093;37.614;15.072;2023-09-19T08:48:06;13.23;;;3.92;;
73779;SDS011;62093;37.614;15.072;2023-09-19T08:56:14;14.20;;;4.40;;
73779;SDS011;62093;37.614;15.072;2023-09-19T08:58:44;11.13;;;3.63;;
73779;SDS011;62093;37.614;15.072;2023-09-19T09:01:13;13.00;;;4.55;;
73779;SDS011;62093;37.614;15.072;2023-09-19T09:03:41;13.05;;;4.03;;
73779;SDS011;62093;37.614;15.072;2023-09-19T09:06:13;11.70;;;3.95;;
73779;SDS011;62093;37.614;15.072;2023-09-19T09:08:41;13.93;;;3.67;;
73779;SDS011;62093;37.614;15.072;2023-09-19T09:11:08;12.80;;;3.70;;
73779;SDS011;62093;37.614;15.072;2023-09-19T09:13:35;13.95;;;3.78;;
73779;SDS011;62093;37.614;15.072;2023-09-19T09:16:02;16.27;;;4.20;;
73779;SDS011;62093;37.614;15.072;2023-09-19T09:18:31;13.10;;;4.20;;
73779;SDS011;62093;37.614;15.072;2023-09-19T09:20:57;19.83;;;3.88;;
73779;SDS011;62093;37.614;15.072;2023-09-19T09:23:23;14.67;;;4.40;;
73779;SDS011;62093;37.614;15.072;2023-09-19T09:25:54;13.35;;;4.13;;
73779;SDS011;62093;37.614;15.072;2023-09-19T09:28:22;10.77;;;3.85;;
73779;SDS011;62093;37.614;15.072;2023-09-19T09:30:56;14.20;;;4.38;;
73779;SDS011;62093;37.614;15.072;2023-09-19T09:33:23;16.70;;;4.40;;
73779;SDS011;62093;37.614;15.072;2023-09-19T09:35:54;14.43;;;4.18;;
73779;SDS011;62093;37.614;15.072;2023-09-19T09:38:24;15.13;;;4.35;;
73779;SDS011;62093;37.614;15.072;2023-09-19T09:40:53;12.35;;;4.25;;
73779;SDS011;62093;37.614;15.072;2023-09-19T09:43:33;14.88;;;4.18;;
73779;SDS011;62093;37.614;15.072;2023-09-19T09:51:42;15.45;;;4.30;;
73779;SDS011;62093;37.614;15.072;2023-09-19T09:54:14;15.00;;;4.10;;
73779;SDS011;62093;37.614;15.072;2023-09-19T09:56:57;14.98;;;4.22;;
73779;SDS011;62093;37.614;15.072;2023-09-19T10:02:20;15.82;;;4.72;;
73779;SDS011;62093;37.614;15.072;2023-09-19T10:04:56;12.10;;;3.90;;
73779;SDS011;62093;37.614;15.072;2023-09-19T10:07:49;15.90;;;4.25;;
73779;SDS011;62093;37.614;15.072;2023-09-19T10:13:12;11.40;;;3.90;;
73779;SDS011;62093;37.614;15.072;2023-09-19T10:15:47;15.60;;;4.45;;
73779;SDS011;62093;37.614;15.072;2023-09-19T10:18:26;14.93;;;4.07;;
73779;SDS011;62093;37.614;15.072;2023-09-19T10:20:56;16.27;;;4.05;;
73779;SDS011;62093;37.614;15.072;2023-09-19T10:23:30;12.43;;;3.80;;
73779;SDS011;62093;37.614;15.072;2023-09-19T10:25:59;17.23;;;5.17;;
73779;SDS011;62093;37.614;15.072;2023-09-19T10:28:27;14.40;;;4.30;;
73779;SDS011;62093;37.614;15.072;2023-09-19T10:30:55;13.73;;;4.22;;
73779;SDS011;62093;37.614;15.072;2023-09-19T10:33:26;15.93;;;4.28;;
73779;SDS011;62093;37.614;15.072;2023-09-19T10:35:52;14.90;;;4.10;;
73779;SDS011;62093;37.614;15.072;2023-09-19T10:38:23;17.63;;;4.47;;
73779;SDS011;62093;37.614;15.072;2023-09-19T10:40:54;12.95;;;4.13;;
73779;SDS011;62093;37.614;15.072;2023-09-19T10:43:25;10.73;;;4.00;;
73779;SDS011;62093;37.614;15.072;2023-09-19T10:45:56;12.23;;;3.90;;
73779;SDS011;62093;37.614;15.072;2023-09-19T10:48:26;11.10;;;3.92;;
73779;SDS011;62093;37.614;15.072;2023-09-19T10:51:04;11.33;;;3.90;;
73779;SDS011;62093;37.614;15.072;2023-09-19T10:53:51;13.90;;;3.97;;
73779;SDS011;62093;37.614;15.072;2023-09-19T10:56:29;14.00;;;3.78;;
73779;SDS011;62093;37.614;15.072;2023-09-19T10:59:19;15.00;;;4.10;;
73779;SDS011;62093;37.614;15.072;2023-09-19T11:01:45;11.98;;;4.18;;
73779;SDS011;62093;37.614;15.072;2023-09-19T11:16:02;12.63;;;3.55;;
73779;SDS011;62093;37.614;15.072;2023-09-19T11:26:48;12.10;;;3.88;;
73779;SDS011;62093;37.614;15.072;2023-09-19T11:31:54;13.13;;;3.80;;
73779;SDS011;62093;37.614;15.072;2023-09-19T11:37:11;12.50;;;3.60;;
73779;SDS011;62093;37.614;15.072;2023-09-19T11:40:07;14.13;;;3.90;;
73779;SDS011;62093;37.614;15.072;2023-09-19T11:42:48;14.75;;;3.92;;
73779;SDS011;62093;37.614;15.072;2023-09-19T11:46:01;13.47;;;3.70;;
73779;SDS011;62093;37.614;15.072;2023-09-19T11:51:11;16.17;;;4.00;;
73779;SDS011;62093;37.614;15.072;2023-09-19T11:53:41;13.63;;;3.35;;
73779;SDS011;62093;37.614;15.072;2023-09-19T11:56:10;13.30;;;3.70;;
73779;SDS011;62093;37.614;15.072;2023-09-19T11:58:36;12.87;;;3.60;;
73779;SDS011;62093;37.614;15.072;2023-09-19T12:01:03;13.00;;;3.47;;
73779;SDS011;62093;37.614;15.072;2023-09-19T12:03:33;11.70;;;4.00;;
73779;SDS011;62093;37.614;15.072;2023-09-19T12:06:03;17.48;;;3.72;;
73779;SDS011;62093;37.614;15.072;2023-09-19T12:08:40;14.07;;;3.70;;
73779;SDS011;62093;37.614;15.072;2023-09-19T12:11:11;14.03;;;3.30;;
73779;SDS011;62093;37.614;15.072;2023-09-19T12:13:44;9.93;;;3.33;;
73779;SDS011;62093;37.614;15.072;2023-09-19T12:16:12;13.82;;;3.30;;
73779;SDS011;62093;37.614;15.072;2023-09-19T12:18:42;14.93;;;3.80;;
73779;SDS011;62093;37.614;15.072;2023-09-19T12:23:58;11.60;;;3.23;;
73779;SDS011;62093;37.614;15.072;2023-09-19T12:26:26;12.23;;;3.42;;
73779;SDS011;62093;37.614;15.072;2023-09-19T12:28:54;12.50;;;3.90;;
73779;SDS011;62093;37.614;15.072;2023-09-19T12:31:21;12.90;;;3.38;;
73779;SDS011;62093;37.614;15.072;2023-09-19T12:33:52;14.32;;;3.50;;
73779;SDS011;62093;37.614;15.072;2023-09-19T12:36:21;13.57;;;3.67;;
73779;SDS011;62093;37.614;15.072;2023-09-19T12:38:57;15.38;;;3.33;;
73779;SDS011;62093;37.614;15.072;2023-09-19T12:41:26;11.05;;;3.53;;
73779;SDS011;62093;37.614;15.072;2023-09-19T12:43:52;14.20;;;3.60;;
73779;SDS011;62093;37.614;15.072;2023-09-19T12:46:20;16.77;;;3.78;;
73779;SDS011;62093;37.614;15.072;2023-09-19T12:51:44;12.40;;;3.40;;
73779;SDS011;62093;37.614;15.072;2023-09-19T12:54:14;11.60;;;3.33;;
73779;SDS011;62093;37.614;15.072;2023-09-19T12:56:42;9.93;;;3.70;;
73779;SDS011;62093;37.614;15.072;2023-09-19T12:59:14;13.60;;;3.40;;
73779;SDS011;62093;37.614;15.072;2023-09-19T13:01:41;14.03;;;3.40;;
73779;SDS011;62093;37.614;15.072;2023-09-19T13:04:20;13.05;;;3.40;;
73779;SDS011;62093;37.614;15.072;2023-09-19T13:06:55;12.68;;;3.92;;
73779;SDS011;62093;37.614;15.072;2023-09-19T13:09:24;17.60;;;3.95;;
73779;SDS011;62093;37.614;15.072;2023-09-19T13:11:53;13.65;;;3.58;;
73779;SDS011;62093;37.614;15.072;2023-09-19T13:14:23;14.23;;;3.60;;
73779;SDS011;62093;37.614;15.072;2023-09-19T13:16:57;12.07;;;3.55;;
73779;SDS011;62093;37.614;15.072;2023-09-19T13:19:35;14.55;;;3.05;;
73779;SDS011;62093;37.614;15.072;2023-09-19T13:22:01;14.65;;;3.30;;
73779;SDS011;62093;37.614;15.072;2023-09-19T13:24:27;14.38;;;3.00;;
73779;SDS011;62093;37.614;15.072;2023-09-19T13:26:55;11.73;;;3.10;;
73779;SDS011;62093;37.614;15.072;2023-09-19T13:29:22;13.70;;;3.40;;
73779;SDS011;62093;37.614;15.072;2023-09-19T13:31:52;16.33;;;3.60;;
73779;SDS011;62093;37.614;15.072;2023-09-19T13:34:18;13.02;;;3.30;;
73779;SDS011;62093;37.614;15.072;2023-09-19T13:36:45;14.68;;;3.75;;
73779;SDS011;62093;37.614;15.072;2023-09-19T13:39:15;13.20;;;3.40;;
73779;SDS011;62093;37.614;15.072;2023-09-19T13:41:41;11.90;;;3.33;;
73779;SDS011;62093;37.614;15.072;2023-09-19T13:44:09;11.85;;;3.83;;
73779;SDS011;62093;37.614;15.072;2023-09-19T13:46:39;13.57;;;3.70;;
73779;SDS011;62093;37.614;15.072;2023-09-19T13:49:05;11.80;;;3.10;;
73779;SDS011;62093;37.614;15.072;2023-09-19T13:51:31;17.40;;;3.67;;
73779;SDS011;62093;37.614;15.072;2023-09-19T13:53:58;12.55;;;3.22;;
73779;SDS011;62093;37.614;15.072;2023-09-19T13:56:25;15.43;;;3.70;;
73779;SDS011;62093;37.614;15.072;2023-09-19T13:58:56;15.02;;;3.45;;
73779;SDS011;62093;37.614;15.072;2023-09-19T14:01:22;12.03;;;3.20;;
73779;SDS011;62093;37.614;15.072;2023-09-19T14:03:47;12.15;;;3.42;;
73779;SDS011;62093;37.614;15.072;2023-09-19T14:06:18;13.65;;;3.45;;
73779;SDS011;62093;37.614;15.072;2023-09-19T14:08:44;11.57;;;2.83;;
73779;SDS011;62093;37.614;15.072;2023-09-19T14:11:13;13.15;;;3.10;;
73779;SDS011;62093;37.614;15.072;2023-09-19T14:13:42;12.57;;;3.28;;
73779;SDS011;62093;37.614;15.072;2023-09-19T14:16:14;13.63;;;3.17;;
73779;SDS011;62093;37.614;15.072;2023-09-19T14:18:41;15.05;;;3.47;;
73779;SDS011;62093;37.614;15.072;2023-09-19T14:21:07;12.77;;;2.93;;
73779;SDS011;62093;37.614;15.072;2023-09-19T14:23:36;13.15;;;3.25;;
73779;SDS011;62093;37.614;15.072;2023-09-19T14:26:03;13.50;;;3.47;;
73779;SDS011;62093;37.614;15.072;2023-09-19T14:28:31;12.73;;;3.25;;
73779;SDS011;62093;37.614;15.072;2023-09-19T14:31:09;13.48;;;3.30;;
73779;SDS011;62093;37.614;15.072;2023-09-19T14:33:35;12.47;;;3.43;;
73779;SDS011;62093;37.614;15.072;2023-09-19T14:36:02;14.27;;;3.58;;
73779;SDS011;62093;37.614;15.072;2023-09-19T14:38:34;16.23;;;3.25;;
73779;SDS011;62093;37.614;15.072;2023-09-19T14:41:01;12.27;;;2.97;;
73779;SDS011;62093;37.614;15.072;2023-09-19T14:43:27;11.90;;;3.40;;
73779;SDS011;62093;37.614;15.072;2023-09-19T14:46:04;12.87;;;3.10;;
73779;SDS011;62093;37.614;15.072;2023-09-19T14:48:33;14.07;;;3.45;;
73779;SDS011;62093;37.614;15.072;2023-09-19T14:51:08;13.52;;;3.40;;
73779;SDS011;62093;37.614;15.072;2023-09-19T14:53:34;12.40;;;3.42;;
73779;SDS011;62093;37.614;15.072;2023-09-19T14:56:01;10.73;;;3.30;;
73779;SDS011;62093;37.614;15.072;2023-09-19T14:58:32;14.53;;;3.50;;
73779;SDS011;62093;37.614;15.072;2023-09-19T15:01:05;13.23;;;3.10;;
73779;SDS011;62093;37.614;15.072;2023-09-19T15:03:34;11.10;;;2.60;;
73779;SDS011;62093;37.614;15.072;2023-09-19T15:06:04;12.63;;;2.90;;
73779;SDS011;62093;37.614;15.072;2023-09-19T15:08:31;13.35;;;3.20;;
73779;SDS011;62093;37.614;15.072;2023-09-19T15:11:00;15.63;;;3.30;;
73779;SDS011;62093;37.614;15.072;2023-09-19T15:13:31;10.50;;;3.28;;
73779;SDS011;62093;37.614;15.072;2023-09-19T15:16:06;12.27;;;3.38;;
73779;SDS011;62093;37.614;15.072;2023-09-19T15:18:34;10.57;;;3.00;;
73779;SDS011;62093;37.614;15.072;2023-09-19T15:21:04;13.07;;;3.58;;
73779;SDS011;62093;37.614;15.072;2023-09-19T15:23:31;15.97;;;3.30;;
73779;SDS011;62093;37.614;15.072;2023-09-19T15:26:05;13.98;;;3.17;;
73779;SDS011;62093;37.614;15.072;2023-09-19T15:28:36;11.27;;;3.22;;
73779;SDS011;62093;37.614;15.072;2023-09-19T15:31:03;9.82;;;3.22;;
73779;SDS011;62093;37.614;15.072;2023-09-19T15:33:34;12.18;;;3.10;;
73779;SDS011;62093;37.614;15.072;2023-09-19T15:36:03;12.13;;;2.90;;
73779;SDS011;62093;37.614;15.072;2023-09-19T15:41:23;11.88;;;3.08;;